Mill City, Nevada
Current Conditions -  °F | °C
As of 11:56 AM on Thursday 29 Jan 2015 (Local Time) from KWMC Reporting Station
Clear Clear  
Wind Chill: 40°   Ceiling: Unl
Heat Index: 45°   Visibility: 10mi
Dew Point: 36°   Wind: 10mph
Humidity: 71%   Direction: 70°ENE
Pressure: 30.26"   Gusts: NA
Location:  40.601°N, 117.984°W
Report Text: KWMC 291956Z AUTO 07009KT 10SM CLR 07/02 A3026 RMK AO2 SLP251 T00720022
Loading
Personal Weather Stations






























Interactive Weather Map New forecast layout! Learn more

10-Day Weather Forecast

Advertisements
Track Severe Weather on mobile